createdAt,value
2023-03-05T00:01:13.165Z,96643.34
2023-03-05T00:02:44.909Z,96652.00
2023-03-05T00:04:16.580Z,96646.06
2023-03-05T00:05:48.573Z,96640.44
2023-03-05T00:07:23.248Z,96644.00
2023-03-05T00:08:58.439Z,96648.72
2023-03-05T00:10:30.308Z,96646.31
2023-03-05T00:12:02.126Z,96645.34
2023-03-05T00:13:35.421Z,96648.59
2023-03-05T00:15:09.258Z,96648.38
2023-03-05T00:16:41.082Z,96645.59
2023-03-05T00:18:13.597Z,96644.03
2023-03-05T00:19:45.360Z,96651.44
2023-03-05T00:21:20.850Z,96639.19
2023-03-05T00:22:52.605Z,96646.81
2023-03-05T00:24:25.683Z,96641.69
2023-03-05T00:25:57.942Z,96644.25
2023-03-05T00:27:29.580Z,96645.63
2023-03-05T00:29:01.169Z,96639.00
2023-03-05T00:30:33.701Z,96646.63
2023-03-05T00:32:05.778Z,96642.78
2023-03-05T00:33:37.522Z,96634.66
2023-03-05T00:35:09.993Z,96637.88
2023-03-05T00:36:41.947Z,96633.03
2023-03-05T00:38:13.671Z,96631.81
2023-03-05T00:39:46.748Z,96628.53
2023-03-05T00:41:18.331Z,96627.56
2023-03-05T00:42:50.255Z,96626.78
2023-03-05T00:44:22.069Z,96626.56
2023-03-05T00:45:53.809Z,96622.81
2023-03-05T00:47:25.533Z,96623.22
2023-03-05T00:48:57.296Z,96622.31
2023-03-05T00:50:28.947Z,96625.44
2023-03-05T00:52:00.741Z,96623.72
2023-03-05T00:53:32.566Z,96624.44
2023-03-05T00:55:06.490Z,96619.97
2023-03-05T00:56:38.162Z,96614.25
2023-03-05T00:58:09.777Z,96618.19
2023-03-05T00:59:41.501Z,96621.38
2023-03-05T01:01:13.247Z,96613.78
2023-03-05T01:02:44.922Z,96613.00
2023-03-05T01:04:16.589Z,96610.13
2023-03-05T01:05:48.405Z,96617.66
2023-03-05T01:07:20.005Z,96604.88
2023-03-05T01:08:51.616Z,96609.88
2023-03-05T01:10:28.100Z,96606.59
2023-03-05T01:12:00.448Z,96601.91
2023-03-05T01:13:32.149Z,96602.69
2023-03-05T01:15:04.518Z,96592.22
2023-03-05T01:16:36.272Z,96594.16
2023-03-05T01:18:07.878Z,96593.09
2023-03-05T01:19:39.656Z,96590.25
2023-03-05T01:21:11.589Z,96594.50
2023-03-05T01:22:43.258Z,96585.69
2023-03-05T01:24:14.933Z,96583.59
2023-03-05T01:25:55.397Z,96578.34
2023-03-05T01:27:27.050Z,96580.69
2023-03-05T01:28:58.671Z,96580.31
2023-03-05T01:30:30.300Z,96584.72
2023-03-05T01:32:02.344Z,96577.53
2023-03-05T01:33:34.323Z,96577.75
2023-03-05T01:35:06.828Z,96574.81
2023-03-05T01:36:38.518Z,96575.72
2023-03-05T01:38:10.520Z,96575.44
2023-03-05T01:39:42.167Z,96573.16
2023-03-05T01:41:15.668Z,96571.41
2023-03-05T01:42:48.114Z,96563.81
2023-03-05T01:44:23.591Z,96575.25
2023-03-05T01:46:31.887Z,96562.25
2023-03-05T01:48:03.945Z,96569.44
2023-03-05T01:49:38.060Z,96570.00
2023-03-05T01:51:09.669Z,96560.25
2023-03-05T01:52:42.948Z,96558.06
2023-03-05T01:54:15.443Z,96561.06
2023-03-05T01:55:47.150Z,96556.97
2023-03-05T01:57:21.299Z,96557.13
2023-03-05T01:58:52.903Z,96556.41
2023-03-05T02:00:26.545Z,96551.09
2023-03-05T02:01:58.192Z,96551.16
2023-03-05T02:03:29.841Z,96542.63
2023-03-05T02:05:03.807Z,96542.34
2023-03-05T02:06:35.491Z,96540.84
2023-03-05T02:08:08.418Z,96541.50
2023-03-05T02:09:40.537Z,96541.63
2023-03-05T02:11:12.297Z,96544.13
2023-03-05T02:12:45.347Z,96543.63
2023-03-05T02:14:16.942Z,96539.69
2023-03-05T02:15:49.837Z,96538.91
2023-03-05T02:17:21.482Z,96538.25
2023-03-05T02:18:53.202Z,96536.06
2023-03-05T02:20:25.704Z,96533.00
2023-03-05T02:21:58.767Z,96530.03
2023-03-05T02:23:33.717Z,96527.31
2023-03-05T02:25:18.616Z,96520.59
2023-03-05T02:26:50.279Z,96518.34
2023-03-05T02:28:24.760Z,96524.88
2023-03-05T02:29:56.916Z,96525.25
2023-03-05T02:31:28.545Z,96519.88
2023-03-05T02:33:00.453Z,96524.53
2023-03-05T02:34:32.131Z,96522.06
2023-03-05T02:36:04.461Z,96514.47
2023-03-05T02:37:37.666Z,96512.75
2023-03-05T02:39:09.996Z,96517.16
2023-03-05T02:40:41.591Z,96505.94
2023-03-05T02:42:13.248Z,96501.38
2023-03-05T02:43:44.858Z,96504.88
2023-03-05T02:45:16.595Z,96507.84
2023-03-05T02:46:48.504Z,96508.88
2023-03-05T02:48:20.162Z,96501.63
2023-03-05T02:49:51.797Z,96496.78
2023-03-05T02:51:23.450Z,96495.78
2023-03-05T02:52:56.417Z,96481.66
2023-03-05T02:54:28.148Z,96485.84
2023-03-05T02:56:00.286Z,96487.19
2023-03-05T02:57:31.926Z,96491.19
2023-03-05T02:59:03.625Z,96487.38
2023-03-05T03:00:35.240Z,96482.91
2023-03-05T03:02:06.848Z,96481.50
2023-03-05T03:03:38.588Z,96482.63
2023-03-05T03:05:10.431Z,96484.75
2023-03-05T03:06:42.146Z,96471.03
2023-03-05T03:08:15.865Z,96476.09
2023-03-05T03:09:47.540Z,96476.84
2023-03-05T03:11:19.215Z,96478.16
2023-03-05T03:12:50.888Z,96471.34
2023-03-05T03:14:22.527Z,96474.59
2023-03-05T03:16:01.892Z,96465.09
2023-03-05T03:17:34.725Z,96467.50
2023-03-05T03:19:06.365Z,96464.38
2023-03-05T03:20:39.135Z,96461.25
2023-03-05T03:22:11.098Z,96452.94
2023-03-05T03:23:44.140Z,96456.19
2023-03-05T03:25:16.205Z,96453.44
2023-03-05T03:26:47.874Z,96461.47
2023-03-05T03:28:19.754Z,96459.75
2023-03-05T03:29:51.416Z,96457.41
2023-03-05T03:31:23.169Z,96452.94
2023-03-05T03:32:54.950Z,96454.06
2023-03-05T03:34:26.663Z,96455.63
2023-03-05T03:35:58.404Z,96452.44
2023-03-05T03:37:30.199Z,96455.72
2023-03-05T03:39:04.288Z,96453.84
2023-03-05T03:40:37.456Z,96449.75
2023-03-05T03:42:09.247Z,96442.78
2023-03-05T03:43:40.948Z,96441.88
2023-03-05T03:45:13.364Z,96439.66
2023-03-05T03:46:46.299Z,96437.31
2023-03-05T03:48:18.150Z,96440.28
2023-03-05T03:49:49.832Z,96439.66
2023-03-05T03:51:21.407Z,96436.63
2023-03-05T03:52:53.049Z,96436.53
2023-03-05T03:54:26.337Z,96434.41
2023-03-05T03:55:58.506Z,96441.09
2023-03-05T03:57:30.336Z,96439.00
2023-03-05T03:59:02.026Z,96432.63
2023-03-05T04:00:33.705Z,96425.16
2023-03-05T04:02:05.450Z,96429.63
2023-03-05T04:03:37.109Z,96424.09
2023-03-05T04:05:09.249Z,96437.16
2023-03-05T04:06:40.889Z,96431.69
2023-03-05T04:08:12.682Z,96431.06
2023-03-05T04:09:45.699Z,96430.13
2023-03-05T04:11:19.319Z,96431.13
2023-03-05T04:12:51.058Z,96423.38
2023-03-05T04:14:22.706Z,96431.97
2023-03-05T04:15:54.382Z,96428.97
2023-03-05T04:17:26.128Z,96429.34
2023-03-05T04:18:57.784Z,96425.31
2023-03-05T04:20:29.388Z,96423.72
2023-03-05T04:22:01.301Z,96420.84
2023-03-05T04:23:33.021Z,96423.72
2023-03-05T04:25:08.339Z,96427.38
2023-03-05T04:26:39.950Z,96418.28
2023-03-05T04:28:11.600Z,96419.06
2023-03-05T04:29:43.205Z,96423.47
2023-03-05T04:31:15.001Z,96415.50
2023-03-05T04:32:46.778Z,96422.59
2023-03-05T04:34:18.391Z,96424.16
2023-03-05T04:35:50.107Z,96421.13
2023-03-05T04:37:21.904Z,96422.53
2023-03-05T04:38:53.557Z,96420.25
2023-03-05T04:40:26.659Z,96412.16
2023-03-05T04:41:58.313Z,96404.78
2023-03-05T04:43:29.965Z,96411.22
2023-03-05T04:45:01.565Z,96401.22
2023-03-05T04:46:33.237Z,96409.88
2023-03-05T04:48:05.291Z,96410.88
2023-03-05T04:49:36.930Z,96410.81
2023-03-05T04:51:08.593Z,96405.06
2023-03-05T04:52:40.703Z,96399.44
2023-03-05T04:54:12.290Z,96398.78
2023-03-05T04:55:45.479Z,96399.31
2023-03-05T04:57:17.337Z,96398.09
2023-03-05T04:58:49.036Z,96389.44
2023-03-05T05:00:20.878Z,96386.38
2023-03-05T05:01:52.479Z,96390.06
2023-03-05T05:03:24.167Z,96386.31
2023-03-05T05:04:55.825Z,96377.13
2023-03-05T05:06:27.464Z,96384.31
2023-03-05T05:07:59.170Z,96379.34
2023-03-05T05:09:30.805Z,96386.47
2023-03-05T05:11:04.912Z,96383.03
2023-03-05T05:12:36.645Z,96385.47
2023-03-05T05:14:08.284Z,96383.34
2023-03-05T05:15:40.453Z,96383.34
2023-03-05T05:17:12.151Z,96382.69
2023-03-05T05:18:43.786Z,96381.25
2023-03-05T05:20:15.952Z,96372.88
2023-03-05T05:21:47.660Z,96376.28
2023-03-05T05:23:19.262Z,96378.66
2023-03-05T05:24:50.871Z,96373.97
2023-03-05T05:26:23.886Z,96381.91
2023-03-05T05:27:55.632Z,96377.78
2023-03-05T05:29:27.363Z,96383.31
2023-03-05T05:30:58.982Z,96377.94
2023-03-05T05:32:30.791Z,96387.72
2023-03-05T05:34:02.720Z,96378.97
2023-03-05T05:35:34.414Z,96384.16
2023-03-05T05:37:06.101Z,96379.50
2023-03-05T05:38:37.738Z,96389.63
2023-03-05T05:40:10.675Z,96378.06
2023-03-05T05:41:43.676Z,96374.22
2023-03-05T05:43:15.476Z,96385.16
2023-03-05T05:44:47.649Z,96388.81
2023-03-05T05:46:19.943Z,96387.81
2023-03-05T05:47:51.693Z,96384.66
2023-03-05T05:49:23.304Z,96381.28
2023-03-05T05:50:55.101Z,96387.06
2023-03-05T05:52:26.828Z,96373.09
2023-03-05T05:53:58.472Z,96374.88
2023-03-05T05:55:30.666Z,96367.84
2023-03-05T05:57:19.184Z,96371.75
2023-03-05T05:58:53.522Z,96362.78
2023-03-05T06:00:25.912Z,96373.25
2023-03-05T06:01:57.636Z,96367.81
2023-03-05T06:03:29.376Z,96361.75
2023-03-05T06:05:01.108Z,96363.16
2023-03-05T06:06:36.893Z,96372.97
2023-03-05T06:08:08.709Z,96372.75
2023-03-05T06:09:40.880Z,96365.78
2023-03-05T06:11:12.721Z,96372.94
2023-03-05T06:12:45.807Z,96369.16
2023-03-05T06:14:19.538Z,96373.44
2023-03-05T06:15:57.967Z,96365.50
2023-03-05T06:17:32.332Z,96374.38
2023-03-05T06:19:04.617Z,96379.19
2023-03-05T06:20:36.918Z,96381.25
2023-03-05T06:22:08.983Z,96368.41
2023-03-05T06:23:40.946Z,96383.19
2023-03-05T06:25:15.464Z,96375.38
2023-03-05T06:26:48.580Z,96375.16
2023-03-05T06:28:24.376Z,96379.16
2023-03-05T06:29:56.728Z,96378.44
2023-03-05T06:31:29.378Z,96384.84
2023-03-05T06:33:01.092Z,96378.44
2023-03-05T06:34:33.166Z,96372.31
2023-03-05T06:36:07.654Z,96367.47
2023-03-05T06:37:39.329Z,96363.00
2023-03-05T06:39:11.126Z,96359.72
2023-03-05T06:40:42.887Z,96360.59
2023-03-05T06:42:14.618Z,96365.28
2023-03-05T06:43:48.071Z,96362.03
2023-03-05T06:45:19.880Z,96367.34
2023-03-05T06:46:51.627Z,96366.47
2023-03-05T06:48:23.398Z,96364.47
2023-03-05T06:49:55.043Z,96371.06
2023-03-05T06:51:27.714Z,96372.59
2023-03-05T06:53:03.067Z,96367.41
2023-03-05T06:54:34.998Z,96367.41
2023-03-05T06:56:07.248Z,96367.69
2023-03-05T06:57:39.216Z,96359.78
2023-03-05T06:59:13.834Z,96362.88
2023-03-05T07:00:45.917Z,96362.75
2023-03-05T07:02:20.564Z,96365.56
2023-03-05T07:03:53.742Z,96368.00
2023-03-05T07:05:25.771Z,96356.91
2023-03-05T07:06:59.300Z,96369.31
2023-03-05T07:08:31.220Z,96359.28
2023-03-05T07:10:03.552Z,96360.34
2023-03-05T07:11:35.257Z,96364.84
2023-03-05T07:13:07.003Z,96364.00
2023-03-05T07:14:40.142Z,96364.44
2023-03-05T07:16:14.380Z,96363.78
2023-03-05T07:17:46.064Z,96372.31
2023-03-05T07:19:18.188Z,96360.75
2023-03-05T07:20:50.049Z,96364.84
2023-03-05T07:22:21.752Z,96361.44
2023-03-05T07:23:53.630Z,96365.47
2023-03-05T07:25:25.256Z,96363.34
2023-03-05T07:27:00.022Z,96364.41
2023-03-05T07:28:32.118Z,96360.50
2023-03-05T07:30:06.700Z,96365.28
2023-03-05T07:31:38.454Z,96360.72
2023-03-05T07:33:10.215Z,96358.78
2023-03-05T07:34:44.956Z,96358.16
2023-03-05T07:36:17.277Z,96360.28
2023-03-05T07:37:49.042Z,96356.72
2023-03-05T07:39:21.440Z,96367.19
2023-03-05T07:40:53.732Z,96360.63
2023-03-05T07:42:25.896Z,96363.56
2023-03-05T07:44:00.516Z,96359.03
2023-03-05T07:45:33.976Z,96353.97
2023-03-05T07:47:06.151Z,96354.06
2023-03-05T07:48:37.872Z,96356.16
2023-03-05T07:50:10.581Z,96353.09
2023-03-05T07:51:42.393Z,96351.81
2023-03-05T07:53:14.200Z,96357.13
2023-03-05T07:54:45.978Z,96350.00
2023-03-05T07:56:21.623Z,96342.59
2023-03-05T07:57:53.747Z,96353.72
2023-03-05T07:59:28.272Z,96345.72
2023-03-05T08:01:04.008Z,96343.22
2023-03-05T08:02:36.574Z,96348.25
2023-03-05T08:04:11.172Z,96341.38
2023-03-05T08:05:43.254Z,96341.59
2023-03-05T08:07:21.332Z,96337.88
2023-03-05T08:08:55.854Z,96331.94
2023-03-05T08:10:27.742Z,96331.69
2023-03-05T08:11:59.767Z,96334.66
2023-03-05T08:13:31.548Z,96329.31
2023-03-05T08:15:03.708Z,96338.88
2023-03-05T08:16:36.741Z,96330.09
2023-03-05T08:18:08.954Z,96336.06
2023-03-05T08:19:43.493Z,96328.66
2023-03-05T08:21:16.435Z,96322.63
2023-03-05T08:22:48.137Z,96323.16
2023-03-05T08:24:19.929Z,96318.50
2023-03-05T08:25:51.566Z,96324.38
2023-03-05T08:27:23.177Z,96317.44
2023-03-05T08:28:55.125Z,96320.63
2023-03-05T08:30:27.568Z,96314.09
2023-03-05T08:32:00.734Z,96317.22
2023-03-05T08:33:33.859Z,96316.75
2023-03-05T08:35:07.573Z,96309.16
2023-03-05T08:36:39.310Z,96316.94
2023-03-05T08:38:11.104Z,96311.38
2023-03-05T08:39:43.015Z,96310.34
2023-03-05T08:41:15.041Z,96314.50
2023-03-05T08:42:46.705Z,96309.16
2023-03-05T08:44:18.390Z,96310.78
2023-03-05T08:45:51.629Z,96317.53
2023-03-05T08:47:26.680Z,96312.09
2023-03-05T08:49:00.210Z,96313.63
2023-03-05T08:50:32.757Z,96313.63
2023-03-05T08:52:14.710Z,96312.44
2023-03-05T08:53:49.539Z,96318.13
2023-03-05T08:55:21.873Z,96320.25
2023-03-05T08:56:56.489Z,96320.56
2023-03-05T08:58:28.448Z,96320.75
2023-03-05T09:00:00.447Z,96315.91
2023-03-05T09:01:38.795Z,96318.78
2023-03-05T09:03:22.264Z,96314.72
2023-03-05T09:05:22.365Z,96314.03
2023-03-05T09:07:24.741Z,96309.72
2023-03-05T09:09:02.617Z,96304.81
2023-03-05T09:10:46.461Z,96304.22
2023-03-05T09:12:18.403Z,96302.03
2023-03-05T09:14:09.355Z,96297.22
2023-03-05T09:16:17.656Z,96307.66
2023-03-05T09:17:54.176Z,96300.94
2023-03-05T09:19:27.604Z,96297.78
2023-03-05T09:21:08.478Z,96293.69
2023-03-05T09:22:51.112Z,96286.44
2023-03-05T09:24:23.836Z,96292.25
2023-03-05T09:26:12.218Z,96290.47
2023-03-05T09:27:46.304Z,96282.19
2023-03-05T09:29:18.336Z,96289.50
2023-03-05T09:30:50.304Z,96281.72
2023-03-05T09:32:23.060Z,96283.94
2023-03-05T09:33:58.204Z,96287.50
2023-03-05T09:35:38.191Z,96281.16
2023-03-05T09:37:10.657Z,96284.59
2023-03-05T09:38:45.480Z,96279.31
2023-03-05T09:40:20.341Z,96279.84
2023-03-05T09:42:25.766Z,96277.75
2023-03-05T09:44:03.011Z,96278.94
2023-03-05T09:45:38.935Z,96283.41
2023-03-05T09:47:20.717Z,96266.50
2023-03-05T09:48:56.394Z,96277.63
2023-03-05T09:50:37.659Z,96279.81
2023-03-05T09:52:18.627Z,96278.97
2023-03-05T09:53:56.404Z,96269.94
2023-03-05T09:55:46.165Z,96272.44
2023-03-05T09:57:26.208Z,96267.97
2023-03-05T09:59:13.054Z,96273.47
2023-03-05T10:00:49.676Z,96270.09
2023-03-05T10:02:39.586Z,96270.63
2023-03-05T10:04:18.845Z,96264.34
2023-03-05T10:06:11.031Z,96264.22
2023-03-05T10:09:47.304Z,96260.38
2023-03-05T10:11:48.732Z,96261.63
2023-03-05T10:13:46.563Z,96259.34
2023-03-05T10:15:32.150Z,96255.34
2023-03-05T10:17:32.823Z,96248.66
2023-03-05T10:19:31.625Z,96252.72
2023-03-05T10:21:21.301Z,96250.75
2023-03-05T10:23:21.328Z,96248.28
2023-03-05T10:25:31.651Z,96248.78
2023-03-05T10:27:22.692Z,96245.00
2023-03-05T10:29:16.580Z,96245.16
2023-03-05T10:31:31.967Z,96243.84
2023-03-05T10:33:54.610Z,96247.50
2023-03-05T10:40:25.440Z,96241.63
2023-03-05T10:42:04.308Z,96243.06
2023-03-05T10:43:43.164Z,96234.78
2023-03-05T10:45:18.659Z,96233.00
2023-03-05T10:46:50.514Z,96227.19
2023-03-05T10:48:29.025Z,96231.75
2023-03-05T10:50:05.819Z,96225.25
2023-03-05T10:51:38.661Z,96219.22
2023-03-05T10:53:17.399Z,96212.22
2023-03-05T10:54:49.529Z,96212.81
2023-03-05T10:56:22.440Z,96208.94
2023-03-05T10:57:55.034Z,96201.03
2023-03-05T10:59:29.419Z,96204.94
2023-03-05T11:01:07.305Z,96201.38
2023-03-05T11:02:53.333Z,96201.81
2023-03-05T11:04:29.197Z,96196.22
2023-03-05T11:06:01.732Z,96190.47
2023-03-05T11:07:37.370Z,96200.91
2023-03-05T11:09:27.032Z,96195.63
2023-03-05T11:11:18.776Z,96197.66
2023-03-05T11:12:50.673Z,96190.94
2023-03-05T11:14:25.250Z,96182.88
2023-03-05T11:16:02.185Z,96180.22
2023-03-05T11:17:34.909Z,96178.66
2023-03-05T11:19:22.447Z,96175.88
2023-03-05T11:20:55.234Z,96173.69
2023-03-05T11:22:27.273Z,96169.47
2023-03-05T11:24:06.679Z,96165.13
2023-03-05T11:25:55.216Z,96163.91
2023-03-05T11:27:32.365Z,96157.06
2023-03-05T11:29:05.007Z,96155.66
2023-03-05T11:30:36.861Z,96144.91
2023-03-05T11:32:19.288Z,96145.50
2023-03-05T11:33:55.920Z,96154.28
2023-03-05T11:35:31.658Z,96153.97
2023-03-05T11:37:04.859Z,96145.59
2023-03-05T11:38:44.742Z,96147.56
2023-03-05T11:40:21.380Z,96138.31
2023-03-05T11:41:56.496Z,96136.59
2023-03-05T11:43:38.727Z,96140.69
2023-03-05T11:45:15.121Z,96133.41
2023-03-05T11:46:48.012Z,96138.59
2023-03-05T11:48:25.324Z,96132.19
2023-03-05T11:50:04.951Z,96134.69
2023-03-05T11:51:40.547Z,96133.22
2023-03-05T11:53:13.393Z,96128.53
2023-03-05T11:54:51.433Z,96123.00
2023-03-05T11:56:25.932Z,96124.63
2023-03-05T11:58:08.213Z,96127.13
2023-03-05T11:59:40.462Z,96124.28
2023-03-05T12:01:14.440Z,96115.97
2023-03-05T12:02:49.891Z,96117.03
2023-03-05T12:04:21.742Z,96112.41
2023-03-05T12:05:54.721Z,96107.56
2023-03-05T12:07:31.024Z,96115.91
2023-03-05T12:09:06.660Z,96110.59
2023-03-05T12:10:38.685Z,96105.88
2023-03-05T12:12:17.544Z,96105.94
2023-03-05T12:13:52.016Z,96103.66
2023-03-05T12:15:35.233Z,96101.50
2023-03-05T12:17:11.176Z,96100.09
2023-03-05T12:18:50.881Z,96099.84
2023-03-05T12:20:25.531Z,96102.63
2023-03-05T12:21:57.405Z,96091.50
2023-03-05T12:23:29.381Z,96089.00
2023-03-05T12:25:27.533Z,96089.44
2023-03-05T12:27:14.851Z,96091.19
2023-03-05T12:28:55.962Z,96077.19
2023-03-05T12:30:55.138Z,96074.41
2023-03-05T12:32:59.896Z,96066.81
2023-03-05T12:34:36.847Z,96070.56
2023-03-05T12:36:34.016Z,96073.25
2023-03-05T12:38:30.282Z,96063.09
2023-03-05T12:40:04.882Z,96072.03
2023-03-05T12:41:44.449Z,96058.66
2023-03-05T12:43:30.445Z,96057.56
2023-03-05T12:45:30.587Z,96060.84
2023-03-05T12:47:23.518Z,96053.28
2023-03-05T12:48:55.412Z,96055.16
2023-03-05T12:50:49.298Z,96043.84
2023-03-05T12:52:28.747Z,96049.22
2023-03-05T12:54:22.770Z,96036.13
2023-03-05T12:56:00.335Z,96041.22
2023-03-05T12:57:31.997Z,96037.34
2023-03-05T12:59:04.292Z,96028.19
2023-03-05T13:00:39.642Z,96026.19
2023-03-05T13:02:27.189Z,96023.31
2023-03-05T13:04:00.536Z,96023.47
2023-03-05T13:05:33.780Z,96023.47
2023-03-05T13:07:15.379Z,96016.81
2023-03-05T13:09:00.071Z,96014.78
2023-03-05T13:10:38.329Z,96012.03
2023-03-05T13:12:15.292Z,96011.81
2023-03-05T13:13:59.023Z,96009.22
2023-03-05T13:15:43.295Z,96001.56
2023-03-05T13:17:38.396Z,96008.97
2023-03-05T13:19:22.729Z,96006.34
2023-03-05T13:21:04.014Z,95999.97
2023-03-05T13:22:42.473Z,96010.53
2023-03-05T13:24:23.183Z,96008.22
2023-03-05T13:26:00.213Z,96006.94
2023-03-05T13:27:38.139Z,96001.38
2023-03-05T13:29:14.080Z,95993.88
2023-03-05T13:30:51.227Z,95999.56
2023-03-05T13:32:30.701Z,95993.09
2023-03-05T13:34:29.834Z,95996.00
2023-03-05T13:36:17.205Z,95993.72
2023-03-05T13:37:53.103Z,95986.66
2023-03-05T13:39:34.239Z,95984.22
2023-03-05T13:41:27.293Z,95986.94
2023-03-05T13:43:17.964Z,95982.69
2023-03-05T13:45:04.485Z,95985.72
2023-03-05T13:46:42.280Z,95993.16
2023-03-05T13:48:37.005Z,95983.81
2023-03-05T13:50:28.906Z,95985.63
2023-03-05T13:52:08.212Z,95988.44
2023-03-05T13:53:53.515Z,95978.72
2023-03-05T13:57:40.002Z,95973.59
2023-03-05T13:59:25.910Z,95976.59
2023-03-05T14:01:04.938Z,95975.78
2023-03-05T14:02:42.424Z,95973.44
2023-03-05T14:04:25.187Z,95973.91
2023-03-05T14:06:13.455Z,95975.56
2023-03-05T14:08:00.447Z,95973.38
2023-03-05T14:09:49.144Z,95971.22
2023-03-05T14:11:29.221Z,95964.94
2023-03-05T14:13:02.795Z,95962.53
2023-03-05T14:14:50.371Z,95958.03
2023-03-05T14:16:38.200Z,95965.81
2023-03-05T14:18:24.101Z,95967.44
2023-03-05T14:20:07.368Z,95958.41
2023-03-05T14:21:57.366Z,95964.28
2023-03-05T14:23:35.996Z,95960.63
2023-03-05T14:25:34.319Z,95949.84
2023-03-05T14:27:18.775Z,95954.78
2023-03-05T14:28:51.995Z,95944.84
2023-03-05T14:30:24.247Z,95941.84
2023-03-05T14:31:57.348Z,95941.38
2023-03-05T14:33:50.152Z,95942.84
2023-03-05T14:37:18.662Z,95941.19
2023-03-05T14:38:57.601Z,95941.34
2023-03-05T14:40:51.622Z,95942.88
2023-03-05T14:42:29.552Z,95932.34
2023-03-05T14:44:10.529Z,95932.06
2023-03-05T14:45:49.092Z,95919.94
2023-03-05T14:47:22.500Z,95913.81
2023-03-05T14:49:10.797Z,95915.84
2023-03-05T14:50:46.772Z,95921.94
2023-03-05T14:52:19.470Z,95916.16
2023-03-05T14:54:09.538Z,95914.72
2023-03-05T14:55:47.049Z,95917.78
2023-03-05T14:57:22.382Z,95916.03
2023-03-05T15:00:46.028Z,95914.38
2023-03-05T15:02:21.892Z,95904.88
2023-03-05T15:03:57.834Z,95906.31
2023-03-05T15:05:59.229Z,95902.38
2023-03-05T15:07:42.004Z,95897.38
2023-03-05T15:09:38.364Z,95902.34
2023-03-05T15:11:33.407Z,95895.88
2023-03-05T15:13:12.739Z,95901.88
2023-03-05T15:15:52.455Z,95898.94
2023-03-05T15:17:36.314Z,95893.16
2023-03-05T15:19:12.499Z,95889.72
2023-03-05T15:21:07.413Z,95889.41
2023-03-05T15:22:52.657Z,95892.84
2023-03-05T15:24:32.018Z,95888.03
2023-03-05T15:26:14.666Z,95884.94
2023-03-05T15:27:53.840Z,95891.16
2023-03-05T15:29:42.760Z,95885.44
2023-03-05T15:31:16.381Z,95882.63
2023-03-05T15:32:51.372Z,95885.41
2023-03-05T15:34:23.374Z,95878.19
2023-03-05T15:36:03.337Z,95883.81
2023-03-05T15:37:40.968Z,95876.53
2023-03-05T15:39:13.179Z,95879.97
2023-03-05T15:40:46.100Z,95869.06
2023-03-05T15:42:20.764Z,95870.22
2023-03-05T15:43:59.806Z,95875.38
2023-03-05T15:45:36.298Z,95868.88
2023-03-05T15:47:13.980Z,95866.25
2023-03-05T15:48:50.330Z,95861.00
2023-03-05T15:50:23.157Z,95857.25
2023-03-05T15:51:55.605Z,95854.06
2023-03-05T15:53:35.443Z,95862.72
2023-03-05T15:55:18.882Z,95853.13
2023-03-05T15:57:10.181Z,95845.28
2023-03-05T15:58:46.460Z,95842.97
2023-03-05T16:00:24.861Z,95846.34
2023-03-05T16:01:57.910Z,95850.72
2023-03-05T16:03:31.792Z,95839.19
2023-03-05T16:05:04.281Z,95836.78
2023-03-05T16:06:36.432Z,95844.63
2023-03-05T16:08:12.967Z,95848.94
2023-03-05T16:09:53.724Z,95840.09
2023-03-05T16:11:31.039Z,95843.19
2023-03-05T16:13:08.136Z,95835.44
2023-03-05T16:14:40.252Z,95833.03
2023-03-05T16:16:12.600Z,95837.78
2023-03-05T16:17:52.333Z,95829.25
2023-03-05T16:19:32.047Z,95826.88
2023-03-05T16:21:04.095Z,95836.00
2023-03-05T16:22:36.009Z,95829.25
2023-03-05T16:24:07.930Z,95827.97
2023-03-05T16:25:41.102Z,95834.25
2023-03-05T16:27:12.863Z,95824.44
2023-03-05T16:28:55.047Z,95827.31
2023-03-05T16:30:30.701Z,95825.97
2023-03-05T16:32:03.019Z,95820.88
2023-03-05T16:33:40.888Z,95823.22
2023-03-05T16:35:13.220Z,95818.56
2023-03-05T16:36:47.027Z,95817.88
2023-03-05T16:38:19.328Z,95816.72
2023-03-05T16:39:53.838Z,95815.78
2023-03-05T16:41:27.265Z,95808.50
2023-03-05T16:42:59.231Z,95812.69
2023-03-05T16:44:33.775Z,95801.50
2023-03-05T16:46:05.678Z,95819.41
2023-03-05T16:47:37.502Z,95806.97
2023-03-05T16:49:14.118Z,95813.63
2023-03-05T16:50:45.871Z,95809.16
2023-03-05T16:52:19.824Z,95804.31
2023-03-05T16:53:53.563Z,95801.88
2023-03-05T16:55:26.245Z,95809.69
2023-03-05T16:57:10.203Z,95798.84
2023-03-05T16:58:44.098Z,95800.75
2023-03-05T17:00:20.423Z,95809.13
2023-03-05T17:01:52.274Z,95797.63
2023-03-05T17:03:26.168Z,95806.16
2023-03-05T17:04:57.887Z,95807.34
2023-03-05T17:06:30.674Z,95812.31
2023-03-05T17:08:05.338Z,95812.41
2023-03-05T17:09:39.148Z,95812.53
2023-03-05T17:11:12.347Z,95809.13
2023-03-05T17:12:47.472Z,95809.94
2023-03-05T17:14:19.312Z,95808.56
2023-03-05T17:15:56.212Z,95812.59
2023-03-05T17:17:34.984Z,95806.34
2023-03-05T17:19:06.756Z,95814.84
2023-03-05T17:20:46.976Z,95813.00
2023-03-05T17:22:21.720Z,95814.91
2023-03-05T17:24:02.107Z,95813.56
2023-03-05T17:25:36.017Z,95813.34
2023-03-05T17:27:13.127Z,95812.88
2023-03-05T17:28:46.692Z,95817.50
2023-03-05T17:30:22.114Z,95817.06
2023-03-05T17:31:53.868Z,95814.97
2023-03-05T17:33:26.944Z,95820.75
2023-03-05T17:35:03.171Z,95816.88
2023-03-05T17:36:38.397Z,95811.47
2023-03-05T17:38:10.914Z,95812.97
2023-03-05T17:39:48.739Z,95810.59
2023-03-05T17:41:20.712Z,95815.06
2023-03-05T17:42:52.445Z,95807.94
2023-03-05T17:44:28.420Z,95816.28
2023-03-05T17:46:01.341Z,95814.53
2023-03-05T17:47:33.158Z,95812.44
2023-03-05T17:49:06.830Z,95809.25
2023-03-05T17:50:38.589Z,95815.44
2023-03-05T17:52:40.501Z,95819.09
2023-03-05T17:54:44.044Z,95811.13
2023-03-05T17:56:20.435Z,95817.56
2023-03-05T17:57:56.306Z,95810.22
2023-03-05T17:59:29.316Z,95817.78
2023-03-05T18:01:00.984Z,95812.09
2023-03-05T18:02:35.499Z,95812.34
2023-03-05T18:04:07.347Z,95806.22
2023-03-05T18:05:39.232Z,95802.50
2023-03-05T18:07:11.641Z,95813.47
2023-03-05T18:08:49.158Z,95804.03
2023-03-05T18:10:22.763Z,95806.22
2023-03-05T18:11:54.516Z,95808.22
2023-03-05T18:13:26.138Z,95797.47
2023-03-05T18:14:59.347Z,95796.81
2023-03-05T18:16:31.212Z,95802.38
2023-03-05T18:18:03.553Z,95803.97
2023-03-05T18:19:35.393Z,95808.63
2023-03-05T18:21:07.870Z,95807.91
2023-03-05T18:22:39.847Z,95803.00
2023-03-05T18:24:13.827Z,95800.00
2023-03-05T18:25:45.617Z,95801.47
2023-03-05T18:27:17.769Z,95798.13
2023-03-05T18:28:56.982Z,95801.09
2023-03-05T18:30:31.637Z,95799.03
2023-03-05T18:32:07.211Z,95793.50
2023-03-05T18:33:41.865Z,95794.69
2023-03-05T18:35:14.516Z,95798.00
2023-03-05T18:36:46.900Z,95793.06
2023-03-05T18:38:24.384Z,95791.50
2023-03-05T18:39:58.135Z,95788.63
2023-03-05T18:41:31.568Z,95783.03
2023-03-05T18:43:13.436Z,95777.34
2023-03-05T18:44:49.747Z,95780.03
2023-03-05T18:46:23.253Z,95783.28
2023-03-05T18:47:56.757Z,95775.28
2023-03-05T18:49:29.688Z,95773.84
2023-03-05T18:51:02.219Z,95768.44
2023-03-05T18:52:35.729Z,95776.56
2023-03-05T18:54:07.678Z,95769.81
2023-03-05T18:55:42.859Z,95775.47
2023-03-05T18:57:15.036Z,95776.63
2023-03-05T18:58:47.821Z,95771.09
2023-03-05T19:00:20.800Z,95767.88
2023-03-05T19:01:54.399Z,95770.06